sensor_id;sensor_type;location;lat;lon;timestamp;P1;durP1;ratioP1;P2;durP2;ratioP2
32455;SDS011;18912;43.270;27.942;2022-11-15T00:01:44;30.30;;;14.80;;
32455;SDS011;18912;43.270;27.942;2022-11-15T00:04:10;21.23;;;10.60;;
32455;SDS011;18912;43.270;27.942;2022-11-15T00:06:35;29.93;;;13.50;;
32455;SDS011;18912;43.270;27.942;2022-11-15T00:09:01;31.93;;;13.60;;
32455;SDS011;18912;43.270;27.942;2022-11-15T00:11:27;27.30;;;13.53;;
32455;SDS011;18912;43.270;27.942;2022-11-15T00:13:56;18.55;;;8.45;;
32455;SDS011;18912;43.270;27.942;2022-11-15T00:16:23;31.10;;;13.43;;
32455;SDS011;18912;43.270;27.942;2022-11-15T00:18:49;26.38;;;12.18;;
32455;SDS011;18912;43.270;27.942;2022-11-15T00:21:15;26.60;;;13.05;;
32455;SDS011;18912;43.270;27.942;2022-11-15T00:23:41;25.88;;;12.98;;
32455;SDS011;18912;43.270;27.942;2022-11-15T00:26:08;27.43;;;12.60;;
32455;SDS011;18912;43.270;27.942;2022-11-15T00:28:37;25.15;;;11.77;;
32455;SDS011;18912;43.270;27.942;2022-11-15T00:31:04;29.15;;;12.18;;
32455;SDS011;18912;43.270;27.942;2022-11-15T00:33:31;24.23;;;12.27;;
32455;SDS011;18912;43.270;27.942;2022-11-15T00:36:01;27.88;;;13.15;;
32455;SDS011;18912;43.270;27.942;2022-11-15T00:38:34;27.70;;;12.02;;
32455;SDS011;18912;43.270;27.942;2022-11-15T00:41:01;25.35;;;11.80;;
32455;SDS011;18912;43.270;27.942;2022-11-15T00:43:28;20.98;;;11.18;;
32455;SDS011;18912;43.270;27.942;2022-11-15T00:45:54;26.30;;;11.27;;
32455;SDS011;18912;43.270;27.942;2022-11-15T00:48:19;21.37;;;10.30;;
32455;SDS011;18912;43.270;27.942;2022-11-15T00:50:45;23.60;;;11.33;;
32455;SDS011;18912;43.270;27.942;2022-11-15T00:53:10;22.40;;;10.40;;
32455;SDS011;18912;43.270;27.942;2022-11-15T00:55:36;19.13;;;9.87;;
32455;SDS011;18912;43.270;27.942;2022-11-15T00:58:01;23.93;;;11.80;;
32455;SDS011;18912;43.270;27.942;2022-11-15T01:00:27;19.52;;;10.15;;
32455;SDS011;18912;43.270;27.942;2022-11-15T01:02:53;21.07;;;9.83;;
32455;SDS011;18912;43.270;27.942;2022-11-15T01:05:18;22.07;;;10.90;;
32455;SDS011;18912;43.270;27.942;2022-11-15T01:07:44;20.43;;;10.17;;
32455;SDS011;18912;43.270;27.942;2022-11-15T01:10:09;21.63;;;10.83;;
32455;SDS011;18912;43.270;27.942;2022-11-15T01:12:35;22.73;;;9.63;;
32455;SDS011;18912;43.270;27.942;2022-11-15T01:15:01;21.17;;;10.63;;
32455;SDS011;18912;43.270;27.942;2022-11-15T01:17:28;22.00;;;10.77;;
32455;SDS011;18912;43.270;27.942;2022-11-15T01:19:53;19.57;;;9.87;;
32455;SDS011;18912;43.270;27.942;2022-11-15T01:22:18;16.13;;;7.60;;
32455;SDS011;18912;43.270;27.942;2022-11-15T01:24:44;20.90;;;10.50;;
32455;SDS011;18912;43.270;27.942;2022-11-15T01:27:09;24.30;;;9.67;;
32455;SDS011;18912;43.270;27.942;2022-11-15T01:29:35;27.57;;;10.30;;
32455;SDS011;18912;43.270;27.942;2022-11-15T01:32:00;18.60;;;10.20;;
32455;SDS011;18912;43.270;27.942;2022-11-15T01:34:26;18.47;;;9.70;;
32455;SDS011;18912;43.270;27.942;2022-11-15T01:36:51;21.70;;;10.57;;
32455;SDS011;18912;43.270;27.942;2022-11-15T01:39:17;23.83;;;11.00;;
32455;SDS011;18912;43.270;27.942;2022-11-15T01:41:42;24.83;;;11.40;;
32455;SDS011;18912;43.270;27.942;2022-11-15T01:46:55;26.30;;;11.20;;
32455;SDS011;18912;43.270;27.942;2022-11-15T01:49:21;24.25;;;11.70;;
32455;SDS011;18912;43.270;27.942;2022-11-15T01:51:48;23.65;;;11.10;;
32455;SDS011;18912;43.270;27.942;2022-11-15T01:54:15;17.60;;;7.47;;
32455;SDS011;18912;43.270;27.942;2022-11-15T01:56:45;24.70;;;10.30;;
32455;SDS011;18912;43.270;27.942;2022-11-15T01:59:17;23.98;;;11.18;;
32455;SDS011;18912;43.270;27.942;2022-11-15T02:01:43;23.13;;;11.20;;
32455;SDS011;18912;43.270;27.942;2022-11-15T02:04:20;26.53;;;11.10;;
32455;SDS011;18912;43.270;27.942;2022-11-15T02:06:51;20.92;;;10.55;;
32455;SDS011;18912;43.270;27.942;2022-11-15T02:09:16;11.80;;;6.70;;
32455;SDS011;18912;43.270;27.942;2022-11-15T02:11:42;16.95;;;9.25;;
32455;SDS011;18912;43.270;27.942;2022-11-15T02:14:10;16.65;;;9.25;;
32455;SDS011;18912;43.270;27.942;2022-11-15T02:16:44;16.20;;;9.32;;
32455;SDS011;18912;43.270;27.942;2022-11-15T02:22:10;17.10;;;8.93;;
32455;SDS011;18912;43.270;27.942;2022-11-15T02:28:04;18.17;;;9.63;;
32455;SDS011;18912;43.270;27.942;2022-11-15T02:30:42;15.75;;;9.02;;
32455;SDS011;18912;43.270;27.942;2022-11-15T02:41:20;19.17;;;10.57;;
32455;SDS011;18912;43.270;27.942;2022-11-15T02:44:04;16.67;;;8.98;;
32455;SDS011;18912;43.270;27.942;2022-11-15T02:49:35;15.00;;;8.93;;
32455;SDS011;18912;43.270;27.942;2022-11-15T02:52:02;15.68;;;9.10;;
32455;SDS011;18912;43.270;27.942;2022-11-15T02:54:29;16.77;;;9.73;;
32455;SDS011;18912;43.270;27.942;2022-11-15T02:57:00;19.98;;;10.77;;
32455;SDS011;18912;43.270;27.942;2022-11-15T03:11:03;20.15;;;10.52;;
32455;SDS011;18912;43.270;27.942;2022-11-15T03:13:53;18.80;;;9.77;;
32455;SDS011;18912;43.270;27.942;2022-11-15T03:17:28;18.83;;;10.50;;
32455;SDS011;18912;43.270;27.942;2022-11-15T03:19:45;19.80;;;10.40;;
32455;SDS011;18912;43.270;27.942;2022-11-15T03:22:22;18.35;;;10.13;;
32455;SDS011;18912;43.270;27.942;2022-11-15T03:24:56;21.60;;;10.20;;
32455;SDS011;18912;43.270;27.942;2022-11-15T03:27:25;21.67;;;11.13;;
32455;SDS011;18912;43.270;27.942;2022-11-15T03:29:56;27.48;;;10.82;;
32455;SDS011;18912;43.270;27.942;2022-11-15T03:32:26;26.27;;;11.13;;
32455;SDS011;18912;43.270;27.942;2022-11-15T03:37:54;22.45;;;11.60;;
32455;SDS011;18912;43.270;27.942;2022-11-15T03:40:25;23.73;;;12.73;;
32455;SDS011;18912;43.270;27.942;2022-11-15T03:45:56;23.40;;;11.70;;
32455;SDS011;18912;43.270;27.942;2022-11-15T03:48:27;25.45;;;12.13;;
32455;SDS011;18912;43.270;27.942;2022-11-15T03:50:59;24.13;;;12.93;;
32455;SDS011;18912;43.270;27.942;2022-11-15T03:53:25;29.60;;;11.53;;
32455;SDS011;18912;43.270;27.942;2022-11-15T03:55:50;30.73;;;11.93;;
32455;SDS011;18912;43.270;27.942;2022-11-15T03:58:16;23.43;;;12.00;;
32455;SDS011;18912;43.270;27.942;2022-11-15T04:00:41;22.67;;;12.90;;
32455;SDS011;18912;43.270;27.942;2022-11-15T04:03:07;26.70;;;13.07;;
32455;SDS011;18912;43.270;27.942;2022-11-15T04:05:33;26.15;;;12.57;;
32455;SDS011;18912;43.270;27.942;2022-11-15T04:07:58;33.05;;;13.05;;
32455;SDS011;18912;43.270;27.942;2022-11-15T04:10:24;30.60;;;12.50;;
32455;SDS011;18912;43.270;27.942;2022-11-15T04:12:49;25.50;;;12.33;;
32455;SDS011;18912;43.270;27.942;2022-11-15T04:15:19;25.43;;;12.27;;
32455;SDS011;18912;43.270;27.942;2022-11-15T04:17:50;26.52;;;12.52;;
32455;SDS011;18912;43.270;27.942;2022-11-15T04:23:06;22.10;;;11.13;;
32455;SDS011;18912;43.270;27.942;2022-11-15T04:25:59;26.00;;;11.38;;
32455;SDS011;18912;43.270;27.942;2022-11-15T04:28:27;22.05;;;10.73;;
32455;SDS011;18912;43.270;27.942;2022-11-15T04:30:52;26.33;;;11.90;;
32455;SDS011;18912;43.270;27.942;2022-11-15T04:33:18;22.53;;;10.83;;
32455;SDS011;18912;43.270;27.942;2022-11-15T04:35:44;24.42;;;11.45;;
32455;SDS011;18912;43.270;27.942;2022-11-15T04:38:29;20.27;;;10.38;;
32455;SDS011;18912;43.270;27.942;2022-11-15T04:40:55;14.37;;;7.07;;
32455;SDS011;18912;43.270;27.942;2022-11-15T04:43:20;23.87;;;10.33;;
32455;SDS011;18912;43.270;27.942;2022-11-15T04:45:46;15.07;;;6.93;;
32455;SDS011;18912;43.270;27.942;2022-11-15T04:48:11;22.43;;;9.87;;
32455;SDS011;18912;43.270;27.942;2022-11-15T04:50:37;25.10;;;11.13;;
32455;SDS011;18912;43.270;27.942;2022-11-15T04:53:02;25.50;;;11.70;;
32455;SDS011;18912;43.270;27.942;2022-11-15T04:55:28;26.97;;;11.37;;
32455;SDS011;18912;43.270;27.942;2022-11-15T04:57:57;27.63;;;11.90;;
32455;SDS011;18912;43.270;27.942;2022-11-15T05:00:24;29.85;;;12.35;;
32455;SDS011;18912;43.270;27.942;2022-11-15T05:02:51;26.70;;;11.60;;
32455;SDS011;18912;43.270;27.942;2022-11-15T05:05:35;24.85;;;12.25;;
32455;SDS011;18912;43.270;27.942;2022-11-15T05:08:00;27.00;;;12.63;;
32455;SDS011;18912;43.270;27.942;2022-11-15T05:10:26;29.67;;;13.00;;
32455;SDS011;18912;43.270;27.942;2022-11-15T05:12:51;31.23;;;12.87;;
32455;SDS011;18912;43.270;27.942;2022-11-15T05:15:17;25.60;;;12.13;;
32455;SDS011;18912;43.270;27.942;2022-11-15T05:17:42;24.40;;;11.73;;
32455;SDS011;18912;43.270;27.942;2022-11-15T05:20:08;24.90;;;11.70;;
32455;SDS011;18912;43.270;27.942;2022-11-15T05:22:34;26.98;;;12.45;;
32455;SDS011;18912;43.270;27.942;2022-11-15T05:24:59;24.90;;;11.50;;
32455;SDS011;18912;43.270;27.942;2022-11-15T05:27:25;19.93;;;8.73;;
32455;SDS011;18912;43.270;27.942;2022-11-15T05:29:50;28.53;;;12.13;;
32455;SDS011;18912;43.270;27.942;2022-11-15T05:32:16;25.40;;;11.90;;
32455;SDS011;18912;43.270;27.942;2022-11-15T05:34:42;29.33;;;12.48;;
32455;SDS011;18912;43.270;27.942;2022-11-15T05:37:08;24.83;;;11.80;;
32455;SDS011;18912;43.270;27.942;2022-11-15T05:39:34;25.53;;;12.17;;
32455;SDS011;18912;43.270;27.942;2022-11-15T05:42:01;28.80;;;11.50;;
32455;SDS011;18912;43.270;27.942;2022-11-15T05:44:32;27.08;;;11.57;;
32455;SDS011;18912;43.270;27.942;2022-11-15T05:46:59;23.88;;;11.18;;
32455;SDS011;18912;43.270;27.942;2022-11-15T05:49:25;24.47;;;11.07;;
32455;SDS011;18912;43.270;27.942;2022-11-15T05:51:53;25.33;;;10.75;;
32455;SDS011;18912;43.270;27.942;2022-11-15T05:54:19;23.43;;;11.37;;
32455;SDS011;18912;43.270;27.942;2022-11-15T05:56:47;31.00;;;11.57;;
32455;SDS011;18912;43.270;27.942;2022-11-15T05:59:13;22.00;;;10.90;;
32455;SDS011;18912;43.270;27.942;2022-11-15T06:01:39;19.83;;;10.30;;
32455;SDS011;18912;43.270;27.942;2022-11-15T06:04:05;21.77;;;10.70;;
32455;SDS011;18912;43.270;27.942;2022-11-15T06:06:31;23.00;;;10.53;;
32455;SDS011;18912;43.270;27.942;2022-11-15T06:08:56;19.83;;;9.43;;
32455;SDS011;18912;43.270;27.942;2022-11-15T06:11:21;26.57;;;12.47;;
32455;SDS011;18912;43.270;27.942;2022-11-15T06:13:47;22.40;;;11.07;;
32455;SDS011;18912;43.270;27.942;2022-11-15T06:16:12;15.33;;;7.63;;
32455;SDS011;18912;43.270;27.942;2022-11-15T06:18:38;24.80;;;10.67;;
32455;SDS011;18912;43.270;27.942;2022-11-15T06:21:03;15.90;;;7.13;;
32455;SDS011;18912;43.270;27.942;2022-11-15T06:23:33;22.10;;;10.27;;
32455;SDS011;18912;43.270;27.942;2022-11-15T06:26:00;23.17;;;10.85;;
32455;SDS011;18912;43.270;27.942;2022-11-15T06:28:29;21.23;;;10.88;;
32455;SDS011;18912;43.270;27.942;2022-11-15T06:31:01;21.33;;;10.52;;
32455;SDS011;18912;43.270;27.942;2022-11-15T06:33:30;24.63;;;10.75;;
32455;SDS011;18912;43.270;27.942;2022-11-15T06:35:59;19.83;;;10.07;;
32455;SDS011;18912;43.270;27.942;2022-11-15T06:38:28;22.23;;;10.73;;
32455;SDS011;18912;43.270;27.942;2022-11-15T06:40:53;20.37;;;10.27;;
32455;SDS011;18912;43.270;27.942;2022-11-15T06:43:19;25.80;;;10.03;;
32455;SDS011;18912;43.270;27.942;2022-11-15T06:45:44;21.97;;;10.50;;
32455;SDS011;18912;43.270;27.942;2022-11-15T06:48:10;24.43;;;11.27;;
32455;SDS011;18912;43.270;27.942;2022-11-15T06:50:35;21.23;;;10.80;;
32455;SDS011;18912;43.270;27.942;2022-11-15T06:53:02;24.57;;;9.97;;
32455;SDS011;18912;43.270;27.942;2022-11-15T06:55:28;20.60;;;10.10;;
32455;SDS011;18912;43.270;27.942;2022-11-15T06:57:54;22.88;;;10.23;;
32455;SDS011;18912;43.270;27.942;2022-11-15T07:00:20;20.00;;;10.17;;
32455;SDS011;18912;43.270;27.942;2022-11-15T07:02:47;28.77;;;11.50;;
32455;SDS011;18912;43.270;27.942;2022-11-15T07:05:13;21.20;;;10.48;;
32455;SDS011;18912;43.270;27.942;2022-11-15T07:07:41;19.08;;;9.13;;
32455;SDS011;18912;43.270;27.942;2022-11-15T07:10:07;17.95;;;9.27;;
32455;SDS011;18912;43.270;27.942;2022-11-15T07:12:33;18.20;;;9.57;;
32455;SDS011;18912;43.270;27.942;2022-11-15T07:14:58;20.00;;;10.23;;
32455;SDS011;18912;43.270;27.942;2022-11-15T07:17:24;18.60;;;9.47;;
32455;SDS011;18912;43.270;27.942;2022-11-15T07:19:49;19.03;;;9.63;;
32455;SDS011;18912;43.270;27.942;2022-11-15T07:22:15;17.17;;;9.03;;
32455;SDS011;18912;43.270;27.942;2022-11-15T07:24:40;22.30;;;9.60;;
32455;SDS011;18912;43.270;27.942;2022-11-15T07:27:06;18.00;;;9.63;;
32455;SDS011;18912;43.270;27.942;2022-11-15T07:29:31;15.13;;;6.70;;
32455;SDS011;18912;43.270;27.942;2022-11-15T07:31:57;18.23;;;9.33;;
32455;SDS011;18912;43.270;27.942;2022-11-15T07:34:22;16.70;;;8.60;;
32455;SDS011;18912;43.270;27.942;2022-11-15T07:36:48;18.10;;;9.73;;
32455;SDS011;18912;43.270;27.942;2022-11-15T07:39:14;19.23;;;9.93;;
32455;SDS011;18912;43.270;27.942;2022-11-15T07:41:39;21.57;;;9.67;;
32455;SDS011;18912;43.270;27.942;2022-11-15T07:44:05;22.73;;;12.17;;
32455;SDS011;18912;43.270;27.942;2022-11-15T07:46:31;30.50;;;13.43;;
32455;SDS011;18912;43.270;27.942;2022-11-15T07:48:56;25.98;;;12.45;;
32455;SDS011;18912;43.270;27.942;2022-11-15T07:51:22;34.37;;;14.93;;
32455;SDS011;18912;43.270;27.942;2022-11-15T07:53:48;30.43;;;11.47;;
32455;SDS011;18912;43.270;27.942;2022-11-15T07:56:13;15.33;;;8.27;;
32455;SDS011;18912;43.270;27.942;2022-11-15T07:58:39;15.23;;;8.80;;
32455;SDS011;18912;43.270;27.942;2022-11-15T08:01:05;20.07;;;9.23;;
32455;SDS011;18912;43.270;27.942;2022-11-15T08:03:31;16.58;;;8.98;;
32455;SDS011;18912;43.270;27.942;2022-11-15T08:05:57;14.70;;;8.40;;
32455;SDS011;18912;43.270;27.942;2022-11-15T08:08:22;16.70;;;8.40;;
32455;SDS011;18912;43.270;27.942;2022-11-15T08:10:48;13.27;;;7.87;;
32455;SDS011;18912;43.270;27.942;2022-11-15T08:13:14;13.67;;;7.73;;
32455;SDS011;18912;43.270;27.942;2022-11-15T08:15:39;15.82;;;9.10;;
32455;SDS011;18912;43.270;27.942;2022-11-15T08:18:06;16.87;;;8.77;;
32455;SDS011;18912;43.270;27.942;2022-11-15T08:20:35;21.45;;;9.10;;
32455;SDS011;18912;43.270;27.942;2022-11-15T08:23:01;24.60;;;9.17;;
32455;SDS011;18912;43.270;27.942;2022-11-15T08:25:29;15.38;;;8.40;;
32455;SDS011;18912;43.270;27.942;2022-11-15T08:27:56;16.73;;;8.38;;
32455;SDS011;18912;43.270;27.942;2022-11-15T08:30:23;15.18;;;8.55;;
32455;SDS011;18912;43.270;27.942;2022-11-15T08:32:50;19.45;;;9.55;;
32455;SDS011;18912;43.270;27.942;2022-11-15T08:35:17;12.95;;;7.45;;
32455;SDS011;18912;43.270;27.942;2022-11-15T08:40:08;14.68;;;7.53;;
32455;SDS011;18912;43.270;27.942;2022-11-15T08:42:34;11.90;;;5.63;;
32455;SDS011;18912;43.270;27.942;2022-11-15T08:45:00;17.20;;;7.18;;
32455;SDS011;18912;43.270;27.942;2022-11-15T08:47:26;13.27;;;8.03;;
32455;SDS011;18912;43.270;27.942;2022-11-15T08:49:51;31.37;;;16.50;;
32455;SDS011;18912;43.270;27.942;2022-11-15T08:52:17;16.47;;;7.93;;
32455;SDS011;18912;43.270;27.942;2022-11-15T08:54:43;13.52;;;8.05;;
32455;SDS011;18912;43.270;27.942;2022-11-15T08:57:08;16.73;;;7.47;;
32455;SDS011;18912;43.270;27.942;2022-11-15T08:59:34;16.67;;;9.10;;
32455;SDS011;18912;43.270;27.942;2022-11-15T09:04:26;16.45;;;7.25;;
32455;SDS011;18912;43.270;27.942;2022-11-15T09:06:52;14.30;;;8.10;;
32455;SDS011;18912;43.270;27.942;2022-11-15T09:09:17;20.30;;;10.10;;
32455;SDS011;18912;43.270;27.942;2022-11-15T09:11:42;12.33;;;8.00;;
32455;SDS011;18912;43.270;27.942;2022-11-15T09:14:10;11.97;;;6.47;;
32455;SDS011;18912;43.270;27.942;2022-11-15T09:16:36;11.57;;;7.10;;
32455;SDS011;18912;43.270;27.942;2022-11-15T09:19:01;10.80;;;6.27;;
32455;SDS011;18912;43.270;27.942;2022-11-15T09:21:28;13.07;;;7.87;;
32455;SDS011;18912;43.270;27.942;2022-11-15T09:23:54;15.07;;;8.55;;
32455;SDS011;18912;43.270;27.942;2022-11-15T09:26:19;13.07;;;7.30;;
32455;SDS011;18912;43.270;27.942;2022-11-15T09:28:45;13.00;;;6.53;;
32455;SDS011;18912;43.270;27.942;2022-11-15T09:31:10;11.90;;;7.60;;
32455;SDS011;18912;43.270;27.942;2022-11-15T09:33:36;12.93;;;6.83;;
32455;SDS011;18912;43.270;27.942;2022-11-15T09:36:08;10.23;;;6.18;;
32455;SDS011;18912;43.270;27.942;2022-11-15T09:38:34;12.68;;;6.50;;
32455;SDS011;18912;43.270;27.942;2022-11-15T09:49:25;18.38;;;7.28;;
32455;SDS011;18912;43.270;27.942;2022-11-15T09:51:53;10.50;;;6.07;;
32455;SDS011;18912;43.270;27.942;2022-11-15T09:54:30;11.82;;;6.10;;
32455;SDS011;18912;43.270;27.942;2022-11-15T10:02:17;14.43;;;7.03;;
32455;SDS011;18912;43.270;27.942;2022-11-15T10:04:48;10.90;;;6.07;;
32455;SDS011;18912;43.270;27.942;2022-11-15T10:10:27;13.15;;;6.95;;
32455;SDS011;18912;43.270;27.942;2022-11-15T10:13:07;9.43;;;5.30;;
32455;SDS011;18912;43.270;27.942;2022-11-15T10:15:43;11.18;;;6.03;;
32455;SDS011;18912;43.270;27.942;2022-11-15T10:18:14;14.90;;;6.53;;
32455;SDS011;18912;43.270;27.942;2022-11-15T10:21:17;12.18;;;6.82;;
32455;SDS011;18912;43.270;27.942;2022-11-15T10:23:47;14.98;;;6.65;;
32455;SDS011;18912;43.270;27.942;2022-11-15T10:26:14;9.23;;;5.70;;
32455;SDS011;18912;43.270;27.942;2022-11-15T10:28:41;9.25;;;5.25;;
32455;SDS011;18912;43.270;27.942;2022-11-15T10:31:23;7.90;;;5.17;;
32455;SDS011;18912;43.270;27.942;2022-11-15T10:33:51;12.00;;;5.60;;
32455;SDS011;18912;43.270;27.942;2022-11-15T10:36:22;14.43;;;4.95;;
32455;SDS011;18912;43.270;27.942;2022-11-15T10:41:16;10.20;;;5.73;;
32455;SDS011;18912;43.270;27.942;2022-11-15T10:43:45;13.77;;;6.00;;
32455;SDS011;18912;43.270;27.942;2022-11-15T10:46:26;18.65;;;5.55;;
32455;SDS011;18912;43.270;27.942;2022-11-15T10:48:51;5.93;;;3.47;;
32455;SDS011;18912;43.270;27.942;2022-11-15T10:51:20;16.43;;;5.70;;
32455;SDS011;18912;43.270;27.942;2022-11-15T10:53:57;12.57;;;6.55;;
32455;SDS011;18912;43.270;27.942;2022-11-15T10:56:26;8.38;;;5.10;;
32455;SDS011;18912;43.270;27.942;2022-11-15T10:58:55;18.27;;;5.85;;
32455;SDS011;18912;43.270;27.942;2022-11-15T11:01:23;10.13;;;5.82;;
32455;SDS011;18912;43.270;27.942;2022-11-15T11:04:07;14.43;;;6.32;;
32455;SDS011;18912;43.270;27.942;2022-11-15T11:12:00;10.10;;;4.65;;
32455;SDS011;18912;43.270;27.942;2022-11-15T11:14:31;8.82;;;5.18;;
32455;SDS011;18912;43.270;27.942;2022-11-15T11:17:06;10.25;;;6.10;;
32455;SDS011;18912;43.270;27.942;2022-11-15T11:20:02;15.90;;;5.97;;
32455;SDS011;18912;43.270;27.942;2022-11-15T11:25:33;11.45;;;6.25;;
32455;SDS011;18912;43.270;27.942;2022-11-15T11:30:42;47.42;;;22.98;;
32455;SDS011;18912;43.270;27.942;2022-11-15T11:33:12;24.55;;;11.00;;
32455;SDS011;18912;43.270;27.942;2022-11-15T11:41:11;15.20;;;7.10;;
32455;SDS011;18912;43.270;27.942;2022-11-15T11:55:16;11.53;;;6.40;;
32455;SDS011;18912;43.270;27.942;2022-11-15T12:00:20;40.08;;;20.05;;
32455;SDS011;18912;43.270;27.942;2022-11-15T12:08:29;46.88;;;30.77;;
32455;SDS011;18912;43.270;27.942;2022-11-15T12:13:58;27.65;;;15.65;;
32455;SDS011;18912;43.270;27.942;2022-11-15T12:16:30;19.15;;;11.02;;
32455;SDS011;18912;43.270;27.942;2022-11-15T12:19:01;23.65;;;12.40;;
32455;SDS011;18912;43.270;27.942;2022-11-15T12:24:13;21.90;;;11.95;;
32455;SDS011;18912;43.270;27.942;2022-11-15T12:27:05;20.75;;;10.57;;
32455;SDS011;18912;43.270;27.942;2022-11-15T12:30:00;21.60;;;10.48;;
32455;SDS011;18912;43.270;27.942;2022-11-15T12:32:37;15.68;;;9.52;;
32455;SDS011;18912;43.270;27.942;2022-11-15T12:35:20;15.93;;;9.02;;
32455;SDS011;18912;43.270;27.942;2022-11-15T12:37:49;17.85;;;8.90;;
32455;SDS011;18912;43.270;27.942;2022-11-15T12:42:59;15.15;;;7.70;;
32455;SDS011;18912;43.270;27.942;2022-11-15T12:47:53;19.17;;;8.67;;
32455;SDS011;18912;43.270;27.942;2022-11-15T12:51:03;17.30;;;8.50;;
32455;SDS011;18912;43.270;27.942;2022-11-15T12:58:56;15.93;;;7.70;;
32455;SDS011;18912;43.270;27.942;2022-11-15T13:04:13;17.42;;;7.50;;
32455;SDS011;18912;43.270;27.942;2022-11-15T13:12:02;13.63;;;7.63;;
32455;SDS011;18912;43.270;27.942;2022-11-15T13:14:42;15.23;;;7.03;;
32455;SDS011;18912;43.270;27.942;2022-11-15T13:17:32;13.50;;;7.05;;
32455;SDS011;18912;43.270;27.942;2022-11-15T13:30:39;14.07;;;7.33;;
32455;SDS011;18912;43.270;27.942;2022-11-15T13:33:34;15.88;;;7.97;;
32455;SDS011;18912;43.270;27.942;2022-11-15T13:36:03;17.30;;;8.32;;
32455;SDS011;18912;43.270;27.942;2022-11-15T13:39:12;18.85;;;7.68;;
32455;SDS011;18912;43.270;27.942;2022-11-15T13:41:23;21.02;;;9.02;;
32455;SDS011;18912;43.270;27.942;2022-11-15T13:43:51;13.43;;;8.10;;
32455;SDS011;18912;43.270;27.942;2022-11-15T13:46:19;15.80;;;8.27;;
32455;SDS011;18912;43.270;27.942;2022-11-15T13:48:45;25.00;;;12.55;;
32455;SDS011;18912;43.270;27.942;2022-11-15T13:51:17;19.50;;;9.60;;
32455;SDS011;18912;43.270;27.942;2022-11-15T13:53:58;22.27;;;10.32;;
32455;SDS011;18912;43.270;27.942;2022-11-15T13:56:45;19.73;;;9.65;;
32455;SDS011;18912;43.270;27.942;2022-11-15T13:59:18;17.33;;;10.77;;
32455;SDS011;18912;43.270;27.942;2022-11-15T14:01:51;23.30;;;9.65;;
32455;SDS011;18912;43.270;27.942;2022-11-15T14:04:19;22.98;;;10.93;;
32455;SDS011;18912;43.270;27.942;2022-11-15T14:06:48;19.85;;;8.95;;
32455;SDS011;18912;43.270;27.942;2022-11-15T14:09:28;20.67;;;10.40;;
32455;SDS011;18912;43.270;27.942;2022-11-15T14:11:57;17.15;;;9.40;;
32455;SDS011;18912;43.270;27.942;2022-11-15T14:14:24;18.23;;;8.07;;
32455;SDS011;18912;43.270;27.942;2022-11-15T14:17:00;17.15;;;8.15;;
32455;SDS011;18912;43.270;27.942;2022-11-15T14:22:08;29.27;;;9.53;;
32455;SDS011;18912;43.270;27.942;2022-11-15T14:25:16;23.08;;;10.65;;
32455;SDS011;18912;43.270;27.942;2022-11-15T14:27:44;19.08;;;9.38;;
32455;SDS011;18912;43.270;27.942;2022-11-15T14:30:30;27.58;;;10.43;;
32455;SDS011;18912;43.270;27.942;2022-11-15T14:32:56;24.23;;;10.23;;
32455;SDS011;18912;43.270;27.942;2022-11-15T14:35:22;20.67;;;11.07;;
32455;SDS011;18912;43.270;27.942;2022-11-15T14:37:48;24.50;;;11.02;;
32455;SDS011;18912;43.270;27.942;2022-11-15T14:40:15;21.48;;;10.93;;
32455;SDS011;18912;43.270;27.942;2022-11-15T14:42:47;21.08;;;11.23;;
32455;SDS011;18912;43.270;27.942;2022-11-15T14:45:15;24.48;;;11.73;;
32455;SDS011;18912;43.270;27.942;2022-11-15T14:47:43;25.75;;;9.70;;
32455;SDS011;18912;43.270;27.942;2022-11-15T14:50:16;22.90;;;10.50;;
32455;SDS011;18912;43.270;27.942;2022-11-15T14:52:43;28.02;;;10.70;;
32455;SDS011;18912;43.270;27.942;2022-11-15T14:55:31;27.77;;;12.18;;
32455;SDS011;18912;43.270;27.942;2022-11-15T14:58:04;24.80;;;11.05;;
32455;SDS011;18912;43.270;27.942;2022-11-15T15:00:33;24.33;;;12.70;;
32455;SDS011;18912;43.270;27.942;2022-11-15T15:02:59;25.80;;;10.80;;
32455;SDS011;18912;43.270;27.942;2022-11-15T15:05:27;15.63;;;8.30;;
32455;SDS011;18912;43.270;27.942;2022-11-15T15:07:54;17.45;;;8.65;;
32455;SDS011;18912;43.270;27.942;2022-11-15T15:10:20;21.43;;;9.97;;
32455;SDS011;18912;43.270;27.942;2022-11-15T15:12:46;21.33;;;9.40;;
32455;SDS011;18912;43.270;27.942;2022-11-15T15:15:20;17.57;;;9.67;;
32455;SDS011;18912;43.270;27.942;2022-11-15T15:17:54;20.20;;;9.30;;
32455;SDS011;18912;43.270;27.942;2022-11-15T15:20:20;23.17;;;9.43;;
32455;SDS011;18912;43.270;27.942;2022-11-15T15:22:45;20.77;;;8.70;;
32455;SDS011;18912;43.270;27.942;2022-11-15T15:25:20;34.83;;;17.93;;
32455;SDS011;18912;43.270;27.942;2022-11-15T15:27:54;57.20;;;34.75;;
32455;SDS011;18912;43.270;27.942;2022-11-15T15:30:20;57.55;;;36.85;;
32455;SDS011;18912;43.270;27.942;2022-11-15T15:32:47;42.65;;;27.27;;
32455;SDS011;18912;43.270;27.942;2022-11-15T15:35:13;32.65;;;18.13;;
32455;SDS011;18912;43.270;27.942;2022-11-15T15:40:19;22.00;;;11.32;;
32455;SDS011;18912;43.270;27.942;2022-11-15T15:42:47;30.55;;;14.10;;
32455;SDS011;18912;43.270;27.942;2022-11-15T15:47:40;28.98;;;15.52;;
32455;SDS011;18912;43.270;27.942;2022-11-15T15:52:47;34.78;;;19.90;;
32455;SDS011;18912;43.270;27.942;2022-11-15T15:55:12;35.03;;;18.83;;
32455;SDS011;18912;43.270;27.942;2022-11-15T15:57:38;41.00;;;22.83;;
32455;SDS011;18912;43.270;27.942;2022-11-15T16:00:04;37.70;;;23.60;;
32455;SDS011;18912;43.270;27.942;2022-11-15T16:02:30;31.02;;;16.10;;
32455;SDS011;18912;43.270;27.942;2022-11-15T16:04:55;39.37;;;21.90;;
32455;SDS011;18912;43.270;27.942;2022-11-15T16:07:22;50.42;;;24.65;;
32455;SDS011;18912;43.270;27.942;2022-11-15T16:09:50;48.63;;;28.15;;
32455;SDS011;18912;43.270;27.942;2022-11-15T16:12:25;41.75;;;24.05;;
32455;SDS011;18912;43.270;27.942;2022-11-15T16:17:18;30.75;;;15.85;;
32455;SDS011;18912;43.270;27.942;2022-11-15T16:19:46;36.97;;;21.10;;
32455;SDS011;18912;43.270;27.942;2022-11-15T16:22:12;36.60;;;20.77;;
32455;SDS011;18912;43.270;27.942;2022-11-15T16:24:37;27.43;;;16.03;;
32455;SDS011;18912;43.270;27.942;2022-11-15T16:27:02;29.50;;;17.47;;
32455;SDS011;18912;43.270;27.942;2022-11-15T16:29:28;39.87;;;24.67;;
32455;SDS011;18912;43.270;27.942;2022-11-15T16:31:54;42.50;;;23.00;;
32455;SDS011;18912;43.270;27.942;2022-11-15T16:34:20;32.83;;;16.17;;
32455;SDS011;18912;43.270;27.942;2022-11-15T16:36:46;32.17;;;18.40;;
32455;SDS011;18912;43.270;27.942;2022-11-15T16:39:12;36.47;;;19.97;;
32455;SDS011;18912;43.270;27.942;2022-11-15T16:41:38;60.50;;;26.55;;
32455;SDS011;18912;43.270;27.942;2022-11-15T16:44:04;36.45;;;18.45;;
32455;SDS011;18912;43.270;27.942;2022-11-15T16:46:29;30.13;;;17.33;;
32455;SDS011;18912;43.270;27.942;2022-11-15T16:48:55;29.57;;;17.33;;
32455;SDS011;18912;43.270;27.942;2022-11-15T16:51:21;45.63;;;21.75;;
32455;SDS011;18912;43.270;27.942;2022-11-15T16:53:48;31.35;;;18.83;;